sensor_id;sensor_type;location;lat;lon;timestamp;temperature;humidity
25360;DHT22;13311;51.386;0.016;2023-02-01T00:04:31;9.30;92.90
25360;DHT22;13311;51.386;0.016;2023-02-01T00:09:31;9.30;93.10
25360;DHT22;13311;51.386;0.016;2023-02-01T00:14:32;9.30;93.10
25360;DHT22;13311;51.386;0.016;2023-02-01T00:19:38;9.30;93.40
25360;DHT22;13311;51.386;0.016;2023-02-01T00:24:39;9.30;93.20
25360;DHT22;13311;51.386;0.016;2023-02-01T00:29:39;9.30;93.50
25360;DHT22;13311;51.386;0.016;2023-02-01T00:34:40;9.20;93.50
25360;DHT22;13311;51.386;0.016;2023-02-01T00:39:41;9.10;93.70
25360;DHT22;13311;51.386;0.016;2023-02-01T00:44:41;9.00;93.80
25360;DHT22;13311;51.386;0.016;2023-02-01T00:49:42;9.20;94.00
25360;DHT22;13311;51.386;0.016;2023-02-01T00:54:43;9.10;93.80
25360;DHT22;13311;51.386;0.016;2023-02-01T00:59:43;9.10;94.00
25360;DHT22;13311;51.386;0.016;2023-02-01T01:04:44;9.00;94.20
25360;DHT22;13311;51.386;0.016;2023-02-01T01:09:46;9.00;94.30
25360;DHT22;13311;51.386;0.016;2023-02-01T01:14:46;8.90;94.60
25360;DHT22;13311;51.386;0.016;2023-02-01T01:19:47;8.80;94.40
25360;DHT22;13311;51.386;0.016;2023-02-01T01:24:48;8.90;95.20
25360;DHT22;13311;51.386;0.016;2023-02-01T01:29:49;8.80;94.60
25360;DHT22;13311;51.386;0.016;2023-02-01T01:34:50;8.90;94.70
25360;DHT22;13311;51.386;0.016;2023-02-01T01:39:51;8.80;94.70
25360;DHT22;13311;51.386;0.016;2023-02-01T01:45:04;8.90;94.60
25360;DHT22;13311;51.386;0.016;2023-02-01T01:50:23;9.00;94.60
25360;DHT22;13311;51.386;0.016;2023-02-01T01:55:32;9.00;94.60
25360;DHT22;13311;51.386;0.016;2023-02-01T02:00:36;9.10;94.80
25360;DHT22;13311;51.386;0.016;2023-02-01T02:05:37;9.20;94.60
25360;DHT22;13311;51.386;0.016;2023-02-01T02:10:38;9.20;94.90
25360;DHT22;13311;51.386;0.016;2023-02-01T02:27:10;9.30;94.60
25360;DHT22;13311;51.386;0.016;2023-02-01T02:32:49;9.20;94.80
25360;DHT22;13311;51.386;0.016;2023-02-01T02:43:53;9.30;94.80
25360;DHT22;13311;51.386;0.016;2023-02-01T02:54:37;9.20;94.80
25360;DHT22;13311;51.386;0.016;2023-02-01T02:59:47;9.10;94.80
25360;DHT22;13311;51.386;0.016;2023-02-01T03:05:07;9.10;95.20
25360;DHT22;13311;51.386;0.016;2023-02-01T03:15:50;9.10;95.50
25360;DHT22;13311;51.386;0.016;2023-02-01T03:20:55;9.30;95.10
25360;DHT22;13311;51.386;0.016;2023-02-01T03:26:00;9.40;95.10
25360;DHT22;13311;51.386;0.016;2023-02-01T03:31:02;9.50;94.80
25360;DHT22;13311;51.386;0.016;2023-02-01T03:36:13;9.40;94.70
25360;DHT22;13311;51.386;0.016;2023-02-01T03:46:43;9.50;94.70
25360;DHT22;13311;51.386;0.016;2023-02-01T03:51:47;9.50;94.50
25360;DHT22;13311;51.386;0.016;2023-02-01T03:56:50;9.50;94.40
25360;DHT22;13311;51.386;0.016;2023-02-01T04:01:52;9.50;94.50
25360;DHT22;13311;51.386;0.016;2023-02-01T04:06:53;9.40;94.60
25360;DHT22;13311;51.386;0.016;2023-02-01T04:11:53;9.50;94.60
25360;DHT22;13311;51.386;0.016;2023-02-01T04:16:54;9.50;95.10
25360;DHT22;13311;51.386;0.016;2023-02-01T04:21:55;9.60;94.50
25360;DHT22;13311;51.386;0.016;2023-02-01T04:26:56;9.50;94.40
25360;DHT22;13311;51.386;0.016;2023-02-01T04:31:56;9.50;94.60
25360;DHT22;13311;51.386;0.016;2023-02-01T04:36:57;9.50;94.40
25360;DHT22;13311;51.386;0.016;2023-02-01T04:41:58;9.40;94.60
25360;DHT22;13311;51.386;0.016;2023-02-01T04:46:58;9.40;94.80
25360;DHT22;13311;51.386;0.016;2023-02-01T04:51:59;9.50;94.90
25360;DHT22;13311;51.386;0.016;2023-02-01T04:57:00;9.40;94.70
25360;DHT22;13311;51.386;0.016;2023-02-01T05:02:01;9.40;94.60
25360;DHT22;13311;51.386;0.016;2023-02-01T05:07:01;9.30;94.50
25360;DHT22;13311;51.386;0.016;2023-02-01T05:12:02;9.20;94.60
25360;DHT22;13311;51.386;0.016;2023-02-01T05:17:23;9.20;94.90
25360;DHT22;13311;51.386;0.016;2023-02-01T05:22:23;9.20;94.30
25360;DHT22;13311;51.386;0.016;2023-02-01T05:27:24;9.20;95.00
25360;DHT22;13311;51.386;0.016;2023-02-01T05:32:25;9.20;94.90
25360;DHT22;13311;51.386;0.016;2023-02-01T05:37:26;9.20;94.70
25360;DHT22;13311;51.386;0.016;2023-02-01T05:42:26;9.20;94.70
25360;DHT22;13311;51.386;0.016;2023-02-01T05:47:27;9.30;94.80
25360;DHT22;13311;51.386;0.016;2023-02-01T05:52:28;9.20;94.60
25360;DHT22;13311;51.386;0.016;2023-02-01T05:57:29;9.10;94.90
25360;DHT22;13311;51.386;0.016;2023-02-01T06:02:30;9.10;94.90
25360;DHT22;13311;51.386;0.016;2023-02-01T06:07:31;9.10;95.10
25360;DHT22;13311;51.386;0.016;2023-02-01T06:12:32;9.20;95.10
25360;DHT22;13311;51.386;0.016;2023-02-01T06:17:33;9.10;95.00
25360;DHT22;13311;51.386;0.016;2023-02-01T06:22:34;9.20;95.30
25360;DHT22;13311;51.386;0.016;2023-02-01T06:27:36;9.30;95.10
25360;DHT22;13311;51.386;0.016;2023-02-01T06:32:37;9.20;94.90
25360;DHT22;13311;51.386;0.016;2023-02-01T06:37:39;9.30;95.10
25360;DHT22;13311;51.386;0.016;2023-02-01T06:42:40;9.30;94.90
25360;DHT22;13311;51.386;0.016;2023-02-01T06:47:41;9.30;95.00
25360;DHT22;13311;51.386;0.016;2023-02-01T06:52:42;9.20;94.80
25360;DHT22;13311;51.386;0.016;2023-02-01T06:57:43;9.20;95.00
25360;DHT22;13311;51.386;0.016;2023-02-01T07:02:43;9.20;95.20
25360;DHT22;13311;51.386;0.016;2023-02-01T07:07:44;9.20;95.20
25360;DHT22;13311;51.386;0.016;2023-02-01T07:12:45;9.20;95.10
25360;DHT22;13311;51.386;0.016;2023-02-01T07:17:49;9.20;95.10
25360;DHT22;13311;51.386;0.016;2023-02-01T07:22:55;9.10;95.10
25360;DHT22;13311;51.386;0.016;2023-02-01T07:27:58;9.20;95.40
25360;DHT22;13311;51.386;0.016;2023-02-01T07:33:00;9.30;95.40
25360;DHT22;13311;51.386;0.016;2023-02-01T07:38:01;9.40;95.30
25360;DHT22;13311;51.386;0.016;2023-02-01T07:43:02;9.50;95.30
25360;DHT22;13311;51.386;0.016;2023-02-01T07:48:03;9.60;95.20
25360;DHT22;13311;51.386;0.016;2023-02-01T07:53:04;9.60;95.40
25360;DHT22;13311;51.386;0.016;2023-02-01T07:58:04;9.70;95.40
25360;DHT22;13311;51.386;0.016;2023-02-01T08:03:05;9.70;95.20
25360;DHT22;13311;51.386;0.016;2023-02-01T08:08:06;9.70;95.30
25360;DHT22;13311;51.386;0.016;2023-02-01T08:13:08;9.70;95.30
25360;DHT22;13311;51.386;0.016;2023-02-01T08:18:10;9.70;95.30
25360;DHT22;13311;51.386;0.016;2023-02-01T08:23:11;9.60;95.30
25360;DHT22;13311;51.386;0.016;2023-02-01T08:28:13;9.70;95.40
25360;DHT22;13311;51.386;0.016;2023-02-01T08:33:14;9.80;95.40
25360;DHT22;13311;51.386;0.016;2023-02-01T08:38:14;9.70;95.30
25360;DHT22;13311;51.386;0.016;2023-02-01T08:43:15;9.80;95.30
25360;DHT22;13311;51.386;0.016;2023-02-01T08:48:16;9.80;95.40
25360;DHT22;13311;51.386;0.016;2023-02-01T08:53:16;9.80;95.30
25360;DHT22;13311;51.386;0.016;2023-02-01T08:58:17;9.70;95.40
25360;DHT22;13311;51.386;0.016;2023-02-01T09:03:19;9.60;95.50
25360;DHT22;13311;51.386;0.016;2023-02-01T09:08:20;9.40;95.50
25360;DHT22;13311;51.386;0.016;2023-02-01T09:13:21;9.40;95.80
25360;DHT22;13311;51.386;0.016;2023-02-01T09:18:23;9.50;96.00
25360;DHT22;13311;51.386;0.016;2023-02-01T09:23:25;9.70;96.10
25360;DHT22;13311;51.386;0.016;2023-02-01T09:28:25;9.90;95.50
25360;DHT22;13311;51.386;0.016;2023-02-01T09:33:27;10.10;95.40
25360;DHT22;13311;51.386;0.016;2023-02-01T09:38:30;10.40;95.00
25360;DHT22;13311;51.386;0.016;2023-02-01T09:43:53;10.70;94.70
25360;DHT22;13311;51.386;0.016;2023-02-01T09:49:13;11.00;94.20
25360;DHT22;13311;51.386;0.016;2023-02-01T09:54:39;11.20;93.70
25360;DHT22;13311;51.386;0.016;2023-02-01T09:59:46;11.30;93.50
25360;DHT22;13311;51.386;0.016;2023-02-01T10:04:57;11.40;93.30
25360;DHT22;13311;51.386;0.016;2023-02-01T10:16:00;11.70;93.20
25360;DHT22;13311;51.386;0.016;2023-02-01T10:26:47;12.00;92.80
25360;DHT22;13311;51.386;0.016;2023-02-01T10:32:02;12.20;92.80
25360;DHT22;13311;51.386;0.016;2023-02-01T10:37:28;12.40;92.70
25360;DHT22;13311;51.386;0.016;2023-02-01T10:42:31;12.50;92.30
25360;DHT22;13311;51.386;0.016;2023-02-01T10:47:32;12.70;92.30
25360;DHT22;13311;51.386;0.016;2023-02-01T10:58:10;12.90;91.90
25360;DHT22;13311;51.386;0.016;2023-02-01T11:03:40;12.90;91.90
25360;DHT22;13311;51.386;0.016;2023-02-01T11:08:50;13.00;92.00
25360;DHT22;13311;51.386;0.016;2023-02-01T11:13:58;13.10;92.00
25360;DHT22;13311;51.386;0.016;2023-02-01T11:19:00;13.00;92.00
25360;DHT22;13311;51.386;0.016;2023-02-01T11:24:05;13.00;92.60
25360;DHT22;13311;51.386;0.016;2023-02-01T11:29:14;13.00;92.40
25360;DHT22;13311;51.386;0.016;2023-02-01T11:34:28;13.00;91.90
25360;DHT22;13311;51.386;0.016;2023-02-01T11:39:42;13.30;92.20
25360;DHT22;13311;51.386;0.016;2023-02-01T11:44:45;13.40;92.60
25360;DHT22;13311;51.386;0.016;2023-02-01T11:49:48;13.60;91.10
25360;DHT22;13311;51.386;0.016;2023-02-01T12:27:43;13.90;92.30
25360;DHT22;13311;51.386;0.016;2023-02-01T12:54:12;14.40;93.10
25360;DHT22;13311;51.386;0.016;2023-02-01T12:59:29;14.20;93.20
25360;DHT22;13311;51.386;0.016;2023-02-01T13:04:57;14.30;92.50
25360;DHT22;13311;51.386;0.016;2023-02-01T13:10:24;14.40;92.90
25360;DHT22;13311;51.386;0.016;2023-02-01T13:21:17;14.50;92.00
25360;DHT22;13311;51.386;0.016;2023-02-01T13:26:20;14.70;92.00
25360;DHT22;13311;51.386;0.016;2023-02-01T13:32:11;14.80;91.80
25360;DHT22;13311;51.386;0.016;2023-02-01T13:42:52;14.70;91.90
25360;DHT22;13311;51.386;0.016;2023-02-01T13:47:57;14.60;92.20
25360;DHT22;13311;51.386;0.016;2023-02-01T13:53:16;14.60;92.30
25360;DHT22;13311;51.386;0.016;2023-02-01T13:58:35;14.50;91.60
25360;DHT22;13311;51.386;0.016;2023-02-01T14:03:45;14.40;92.60
25360;DHT22;13311;51.386;0.016;2023-02-01T14:19:26;14.40;91.40
25360;DHT22;13311;51.386;0.016;2023-02-01T14:24:36;14.50;91.80
25360;DHT22;13311;51.386;0.016;2023-02-01T14:29:39;14.40;92.40
25360;DHT22;13311;51.386;0.016;2023-02-01T14:39:55;14.40;92.40
25360;DHT22;13311;51.386;0.016;2023-02-01T14:55:55;14.40;91.60
25360;DHT22;13311;51.386;0.016;2023-02-01T15:01:20;14.40;91.80
25360;DHT22;13311;51.386;0.016;2023-02-01T15:17:29;14.40;91.10
25360;DHT22;13311;51.386;0.016;2023-02-01T15:22:34;14.30;91.20
25360;DHT22;13311;51.386;0.016;2023-02-01T15:27:36;14.30;92.20
25360;DHT22;13311;51.386;0.016;2023-02-01T15:32:39;14.20;91.60
25360;DHT22;13311;51.386;0.016;2023-02-01T15:37:40;14.20;90.80
25360;DHT22;13311;51.386;0.016;2023-02-01T15:42:57;14.20;91.30
25360;DHT22;13311;51.386;0.016;2023-02-01T15:47:59;14.20;90.40
25360;DHT22;13311;51.386;0.016;2023-02-01T15:53:00;14.20;91.40
25360;DHT22;13311;51.386;0.016;2023-02-01T15:58:08;14.10;90.90
25360;DHT22;13311;51.386;0.016;2023-02-01T16:03:35;14.10;91.60
25360;DHT22;13311;51.386;0.016;2023-02-01T16:08:36;14.20;90.90
25360;DHT22;13311;51.386;0.016;2023-02-01T16:13:37;14.10;92.40
25360;DHT22;13311;51.386;0.016;2023-02-01T16:18:38;14.10;91.00
25360;DHT22;13311;51.386;0.016;2023-02-01T16:23:39;14.10;92.20
25360;DHT22;13311;51.386;0.016;2023-02-01T16:28:40;14.10;92.10
25360;DHT22;13311;51.386;0.016;2023-02-01T16:33:40;14.00;92.20
25360;DHT22;13311;51.386;0.016;2023-02-01T16:38:41;13.90;92.40
25360;DHT22;13311;51.386;0.016;2023-02-01T16:43:42;13.90;92.10
25360;DHT22;13311;51.386;0.016;2023-02-01T16:48:48;13.80;92.50
25360;DHT22;13311;51.386;0.016;2023-02-01T16:53:52;13.70;91.60
25360;DHT22;13311;51.386;0.016;2023-02-01T16:58:53;13.70;92.50
25360;DHT22;13311;51.386;0.016;2023-02-01T17:03:54;13.70;91.70
25360;DHT22;13311;51.386;0.016;2023-02-01T17:08:57;13.60;91.70
25360;DHT22;13311;51.386;0.016;2023-02-01T17:14:17;13.60;91.90
25360;DHT22;13311;51.386;0.016;2023-02-01T17:19:21;13.40;91.20
25360;DHT22;13311;51.386;0.016;2023-02-01T17:24:28;13.60;92.20
25360;DHT22;13311;51.386;0.016;2023-02-01T17:29:30;13.50;92.60
25360;DHT22;13311;51.386;0.016;2023-02-01T17:34:31;13.60;92.80
25360;DHT22;13311;51.386;0.016;2023-02-01T17:39:31;13.60;92.00
25360;DHT22;13311;51.386;0.016;2023-02-01T17:44:54;13.30;91.70
25360;DHT22;13311;51.386;0.016;2023-02-01T17:49:56;13.40;92.30
25360;DHT22;13311;51.386;0.016;2023-02-01T17:54:56;13.30;92.10
25360;DHT22;13311;51.386;0.016;2023-02-01T17:59:57;13.30;91.80
25360;DHT22;13311;51.386;0.016;2023-02-01T18:04:58;13.30;92.10
25360;DHT22;13311;51.386;0.016;2023-02-01T18:09:59;13.30;92.30
25360;DHT22;13311;51.386;0.016;2023-02-01T18:15:07;13.30;92.60
25360;DHT22;13311;51.386;0.016;2023-02-01T18:20:23;13.30;93.10
25360;DHT22;13311;51.386;0.016;2023-02-01T18:25:26;13.10;92.30
25360;DHT22;13311;51.386;0.016;2023-02-01T18:30:32;13.20;93.20
25360;DHT22;13311;51.386;0.016;2023-02-01T18:35:33;13.10;92.60
25360;DHT22;13311;51.386;0.016;2023-02-01T18:40:47;13.00;92.80
25360;DHT22;13311;51.386;0.016;2023-02-01T18:45:50;13.10;92.90
25360;DHT22;13311;51.386;0.016;2023-02-01T18:50:51;13.00;92.90
25360;DHT22;13311;51.386;0.016;2023-02-01T18:55:57;12.90;92.90
25360;DHT22;13311;51.386;0.016;2023-02-01T19:01:05;13.00;93.40
25360;DHT22;13311;51.386;0.016;2023-02-01T19:06:08;13.00;93.30
25360;DHT22;13311;51.386;0.016;2023-02-01T19:11:09;13.00;93.60
25360;DHT22;13311;51.386;0.016;2023-02-01T19:16:12;13.00;93.20
25360;DHT22;13311;51.386;0.016;2023-02-01T19:21:15;13.00;93.70
25360;DHT22;13311;51.386;0.016;2023-02-01T19:26:17;13.10;93.70
25360;DHT22;13311;51.386;0.016;2023-02-01T19:31:18;13.00;93.60
25360;DHT22;13311;51.386;0.016;2023-02-01T19:36:19;12.80;93.30
25360;DHT22;13311;51.386;0.016;2023-02-01T19:41:20;12.60;93.20
25360;DHT22;13311;51.386;0.016;2023-02-01T19:46:24;12.60;93.80
25360;DHT22;13311;51.386;0.016;2023-02-01T19:51:25;12.70;94.30
25360;DHT22;13311;51.386;0.016;2023-02-01T19:56:26;12.70;93.60
25360;DHT22;13311;51.386;0.016;2023-02-01T20:01:27;12.70;93.40
25360;DHT22;13311;51.386;0.016;2023-02-01T20:06:29;12.50;93.50
25360;DHT22;13311;51.386;0.016;2023-02-01T20:11:30;12.50;93.30
25360;DHT22;13311;51.386;0.016;2023-02-01T20:16:31;12.30;93.40
25360;DHT22;13311;51.386;0.016;2023-02-01T20:21:32;12.30;93.60
25360;DHT22;13311;51.386;0.016;2023-02-01T20:26:33;12.40;94.10
25360;DHT22;13311;51.386;0.016;2023-02-01T20:31:34;12.30;93.40
25360;DHT22;13311;51.386;0.016;2023-02-01T20:36:35;12.20;93.70
25360;DHT22;13311;51.386;0.016;2023-02-01T20:41:36;12.20;93.90
25360;DHT22;13311;51.386;0.016;2023-02-01T20:46:37;12.10;93.80
25360;DHT22;13311;51.386;0.016;2023-02-01T20:51:38;11.80;94.00
25360;DHT22;13311;51.386;0.016;2023-02-01T20:56:38;12.00;94.20
25360;DHT22;13311;51.386;0.016;2023-02-01T21:01:39;12.00;94.30
25360;DHT22;13311;51.386;0.016;2023-02-01T21:06:50;12.20;94.30
25360;DHT22;13311;51.386;0.016;2023-02-01T21:11:52;12.20;94.10
25360;DHT22;13311;51.386;0.016;2023-02-01T21:16:53;12.30;94.00
25360;DHT22;13311;51.386;0.016;2023-02-01T21:21:53;12.30;94.00
25360;DHT22;13311;51.386;0.016;2023-02-01T21:26:55;12.40;94.20
25360;DHT22;13311;51.386;0.016;2023-02-01T21:31:56;12.40;93.90
25360;DHT22;13311;51.386;0.016;2023-02-01T21:36:57;12.40;93.80
25360;DHT22;13311;51.386;0.016;2023-02-01T21:42:00;12.30;93.80
25360;DHT22;13311;51.386;0.016;2023-02-01T21:47:15;12.20;93.80
25360;DHT22;13311;51.386;0.016;2023-02-01T21:52:17;12.40;93.90
25360;DHT22;13311;51.386;0.016;2023-02-01T21:57:19;12.50;93.80
25360;DHT22;13311;51.386;0.016;2023-02-01T22:02:19;12.50;93.60
25360;DHT22;13311;51.386;0.016;2023-02-01T22:07:20;12.60;93.80
25360;DHT22;13311;51.386;0.016;2023-02-01T22:12:21;12.50;93.50
25360;DHT22;13311;51.386;0.016;2023-02-01T22:17:22;12.60;93.60
25360;DHT22;13311;51.386;0.016;2023-02-01T22:22:23;12.70;93.80
25360;DHT22;13311;51.386;0.016;2023-02-01T22:27:23;12.70;93.60
25360;DHT22;13311;51.386;0.016;2023-02-01T22:32:24;12.70;93.50
25360;DHT22;13311;51.386;0.016;2023-02-01T22:37:25;12.70;93.30
25360;DHT22;13311;51.386;0.016;2023-02-01T22:42:25;12.70;93.30
25360;DHT22;13311;51.386;0.016;2023-02-01T22:47:26;12.50;93.50
25360;DHT22;13311;51.386;0.016;2023-02-01T22:52:28;12.50;93.40
25360;DHT22;13311;51.386;0.016;2023-02-01T22:57:28;12.40;93.50
25360;DHT22;13311;51.386;0.016;2023-02-01T23:02:30;12.40;93.60
25360;DHT22;13311;51.386;0.016;2023-02-01T23:07:31;12.30;93.70
25360;DHT22;13311;51.386;0.016;2023-02-01T23:12:32;12.30;93.80
25360;DHT22;13311;51.386;0.016;2023-02-01T23:17:34;12.20;94.00
25360;DHT22;13311;51.386;0.016;2023-02-01T23:22:36;12.00;94.20
25360;DHT22;13311;51.386;0.016;2023-02-01T23:27:36;12.00;94.20
25360;DHT22;13311;51.386;0.016;2023-02-01T23:32:37;11.90;94.40
25360;DHT22;13311;51.386;0.016;2023-02-01T23:37:38;12.00;94.40
25360;DHT22;13311;51.386;0.016;2023-02-01T23:42:40;12.00;94.40
25360;DHT22;13311;51.386;0.016;2023-02-01T23:48:00;12.20;94.30
25360;DHT22;13311;51.386;0.016;2023-02-01T23:53:01;12.20;94.20
25360;DHT22;13311;51.386;0.016;2023-02-01T23:58:02;12.30;94.10
